Tropical Cyclones
[Index]
Main Index Home Page Stock Weather Photos Extreme Storms Discussion Storm News and Storm Chasing Reports Tropical Cyclones / Hurricanes / Typhoons Weather Data and Links Wild Fires / Bushfires Weather Observation Techniques Weather Picture Catalogue Tornado Pictures and Reports Stock Video Footage and DVDs for sale
Season 1970-1971 Tropical Cyclone IDA Track Map
Season 1970-1971 Summaries: [BoM-AU] [JTWC-AU] [JTWC-SIO] [JTWC-SPAC] [JTWC-SH]
<<- Previous TC | JTWC 1970-1971 Season | Next TC ->>

click for intensity scale information  Lat/long Grid: Show Hide

 Date Labels: Show Hide

Joint Typhoon Warning Centre Cyclone Data

Name: IDA
Number: 763 / 7118

15 Feb 1971 06:00 UTC to 21 Feb 1971 12:00 UTC

    date/time    lat    long     hPa   cat  kts
1971-02-15 06   16.9   157.7                  15          
1971-02-15 12   16.4   156.3                  15          
1971-02-15 18   16.4   155.9                  15          
1971-02-16 00   16.9   156.1                  20          
1971-02-16 06   17.2   156.3                  20          
1971-02-16 12   17.2   156.4                  20          
1971-02-16 18   17.3   156.6                  20          
1971-02-17 00   17.5   157.2                  35          
1971-02-17 06   17.6   157.8            1     45          
1971-02-17 12   17.8   158.2                  35          
1971-02-17 18   18.1   158.7                  25          
1971-02-18 00   19.1   159.6                  25          
1971-02-18 06   20.1   160.4                  25          
1971-02-18 12   20.8   160.9                  25          
1971-02-18 18   21.3   161.4                  25          
1971-02-19 00   21.7   161.7                  25          
1971-02-19 06   22.1   162.0                  25          
1971-02-19 12   22.4   162.2                  15          
1971-02-19 18   22.6   162.4                  10          
1971-02-20 00   22.9   162.6                  20          
1971-02-20 06   23.2   162.7                  25          
1971-02-20 12   23.8   163.3                  15          
1971-02-20 18   24.5   164.2                  10          
1971-02-21 00   25.0   165.2                  15          
1971-02-21 06   25.5   166.4                  20          
1971-02-21 12   25.8   167.8                  20          
Winds are 1-min average.

Tropical cyclone tracks developed by Michael Bath using data from the Joint Typhoon Warning Centre Best Tracks and Google Maps.


[Australian Severe Weather index] [Copyright Notice] [Email Contacts] [Search This Site] [Privacy Policy]
Document: tropical_cyclone_ida.htm Updated: 18 September 2016